createdAt,value
2023-05-06T00:01:46.737Z,100484.50
2023-05-06T00:06:49.819Z,100490.81
2023-05-06T00:11:52.589Z,100488.50
2023-05-06T00:16:56.707Z,100492.06
2023-05-06T00:22:00.015Z,100496.00
2023-05-06T00:27:02.786Z,100489.88
2023-05-06T00:32:07.188Z,100506.09
2023-05-06T00:37:09.965Z,100495.09
2023-05-06T00:42:12.745Z,100494.16
2023-05-06T00:47:18.129Z,100499.88
2023-05-06T00:52:21.193Z,100502.91
2023-05-06T00:57:24.673Z,100489.75
2023-05-06T01:02:43.476Z,100495.75
2023-05-06T01:07:56.739Z,100488.78
2023-05-06T01:13:08.173Z,100491.47
2023-05-06T01:18:18.031Z,100494.50
2023-05-06T01:23:22.463Z,100495.50
2023-05-06T01:28:26.683Z,100483.75
2023-05-06T01:33:36.129Z,100484.16
2023-05-06T01:38:46.879Z,100490.00
2023-05-06T01:43:50.370Z,100486.56
2023-05-06T01:48:56.205Z,100489.75
2023-05-06T01:54:00.705Z,100498.19
2023-05-06T01:59:03.846Z,100493.31
2023-05-06T02:04:07.115Z,100496.25
2023-05-06T02:09:11.855Z,100506.50
2023-05-06T02:14:19.213Z,100507.94
2023-05-06T02:19:22.738Z,100514.44
2023-05-06T02:24:27.225Z,100495.22
2023-05-06T02:29:29.957Z,100498.91
2023-05-06T02:34:33.580Z,100493.88
2023-05-06T02:39:37.665Z,100492.03
2023-05-06T02:44:40.697Z,100488.75
2023-05-06T02:49:43.509Z,100486.66
2023-05-06T02:54:47.627Z,100487.66
2023-05-06T02:59:50.363Z,100488.53
2023-05-06T03:04:53.109Z,100488.28
2023-05-06T03:09:57.433Z,100494.75
2023-05-06T03:15:00.389Z,100484.97
2023-05-06T03:20:03.862Z,100497.19
2023-05-06T03:25:10.108Z,100494.25
2023-05-06T03:30:15.703Z,100495.00
2023-05-06T03:35:19.940Z,100488.88
2023-05-06T03:40:28.864Z,100507.53
2023-05-06T03:45:32.911Z,100497.28
2023-05-06T03:50:38.612Z,100491.53
2023-05-06T03:55:42.921Z,100507.63
2023-05-06T04:00:47.336Z,100516.19
2023-05-06T04:05:51.187Z,100505.97
2023-05-06T04:11:04.493Z,100503.06
2023-05-06T04:16:09.681Z,100507.84
2023-05-06T04:21:16.725Z,100512.56
2023-05-06T04:26:25.831Z,100526.97
2023-05-06T04:36:37.495Z,100524.44
2023-05-06T04:41:52.435Z,100532.22
2023-05-06T04:47:02.420Z,100531.94
2023-05-06T04:52:06.080Z,100530.44
2023-05-06T04:57:11.654Z,100531.81
2023-05-06T05:02:17.324Z,100539.31
2023-05-06T05:07:20.378Z,100547.38
2023-05-06T05:12:25.360Z,100552.41
2023-05-06T05:17:29.363Z,100549.47
2023-05-06T05:22:33.420Z,100559.38
2023-05-06T05:27:38.372Z,100559.56
2023-05-06T05:32:41.522Z,100561.69
2023-05-06T05:37:44.498Z,100570.97
2023-05-06T05:42:48.682Z,100581.31
2023-05-06T05:47:59.114Z,100574.53
2023-05-06T05:53:02.426Z,100576.53
2023-05-06T05:58:08.269Z,100577.44
2023-05-06T06:03:11.660Z,100580.25
2023-05-06T06:08:14.869Z,100588.50
2023-05-06T06:13:19.375Z,100583.69
2023-05-06T06:18:22.279Z,100599.13
2023-05-06T06:23:25.323Z,100594.41
2023-05-06T06:28:29.748Z,100601.00
2023-05-06T06:33:32.604Z,100601.38
2023-05-06T06:38:35.744Z,100599.03
2023-05-06T06:43:39.870Z,100597.47
2023-05-06T06:48:59.502Z,100596.88
2023-05-06T06:54:02.261Z,100602.84
2023-05-06T06:59:06.439Z,100602.47
2023-05-06T07:04:09.294Z,100613.13
2023-05-06T07:09:13.285Z,100613.66
2023-05-06T07:14:17.480Z,100619.28
2023-05-06T07:19:20.315Z,100632.84
2023-05-06T07:24:23.202Z,100634.50
2023-05-06T07:29:27.364Z,100618.94
2023-05-06T07:34:30.290Z,100628.72
2023-05-06T07:39:33.085Z,100621.13
2023-05-06T07:44:37.309Z,100626.16
2023-05-06T07:49:40.153Z,100633.94
2023-05-06T07:54:42.930Z,100637.97
2023-05-06T07:59:48.558Z,100642.56
2023-05-06T08:04:51.937Z,100652.22
2023-05-06T08:09:54.942Z,100651.38
2023-05-06T08:14:59.148Z,100662.72
2023-05-06T08:20:02.002Z,100662.47
2023-05-06T08:25:05.492Z,100676.53
2023-05-06T08:30:11.191Z,100672.16
2023-05-06T08:35:14.097Z,100677.84
2023-05-06T08:40:20.536Z,100671.50
2023-05-06T08:45:25.515Z,100674.34
2023-05-06T08:50:29.961Z,100673.63
2023-05-06T08:55:35.108Z,100668.13
2023-05-06T09:00:40.117Z,100660.44
2023-05-06T09:05:42.957Z,100668.56
2023-05-06T09:10:46.444Z,100655.00
2023-05-06T09:15:50.949Z,100658.25
2023-05-06T09:20:53.754Z,100649.59
2023-05-06T09:25:58.256Z,100649.75
2023-05-06T09:31:02.522Z,100648.88
2023-05-06T09:36:06.858Z,100646.88
2023-05-06T09:41:11.169Z,100646.34
2023-05-06T09:46:15.751Z,100639.06
2023-05-06T09:51:18.805Z,100640.22
2023-05-06T09:56:22.591Z,100633.78
2023-05-06T10:01:36.252Z,100632.56
2023-05-06T10:06:41.733Z,100628.56
2023-05-06T10:11:46.544Z,100627.63
2023-05-06T10:16:51.386Z,100631.06
2023-05-06T10:21:58.705Z,100625.16
2023-05-06T10:27:06.518Z,100629.16
2023-05-06T10:32:12.455Z,100607.75
2023-05-06T10:37:16.085Z,100613.69
2023-05-06T10:42:19.002Z,100614.75
2023-05-06T10:47:23.365Z,100606.03
2023-05-06T10:52:26.258Z,100603.59
2023-05-06T10:57:41.944Z,100590.38
2023-05-06T11:02:47.565Z,100594.25
2023-05-06T11:07:51.589Z,100591.53
2023-05-06T11:12:55.808Z,100588.38
2023-05-06T11:18:42.890Z,100592.63
2023-05-06T11:24:07.953Z,100586.44
2023-05-06T11:29:11.300Z,100597.56
2023-05-06T11:34:22.951Z,100581.56
2023-05-06T11:39:30.218Z,100572.47
2023-05-06T11:44:35.058Z,100572.03
2023-05-06T11:49:41.861Z,100577.13
2023-05-06T11:54:44.685Z,100572.16
2023-05-06T11:59:47.601Z,100570.00
2023-05-06T12:04:52.632Z,100568.16
2023-05-06T12:09:55.802Z,100566.06
2023-05-06T12:14:59.125Z,100566.72
2023-05-06T12:20:04.044Z,100571.28
2023-05-06T12:25:17.211Z,100556.94
2023-05-06T12:30:30.377Z,100569.63
2023-05-06T12:35:34.836Z,100564.97
2023-05-06T12:40:38.340Z,100569.13
2023-05-06T12:45:41.468Z,100562.53
2023-05-06T12:50:46.369Z,100573.97
2023-05-06T12:55:49.150Z,100564.88
2023-05-06T13:00:52.086Z,100557.94
2023-05-06T13:05:56.304Z,100548.44
2023-05-06T13:11:01.575Z,100550.56
2023-05-06T13:16:04.623Z,100547.47
2023-05-06T13:21:09.365Z,100541.94
2023-05-06T13:26:12.134Z,100533.75
2023-05-06T13:31:14.927Z,100535.16
2023-05-06T13:36:19.307Z,100528.47
2023-05-06T13:41:24.277Z,100519.16
2023-05-06T13:46:27.791Z,100521.75
2023-05-06T13:51:33.493Z,100528.50
2023-05-06T13:56:36.327Z,100522.06
2023-05-06T14:01:40.223Z,100520.09
2023-05-06T14:06:44.383Z,100505.25
2023-05-06T14:11:47.176Z,100499.44
2023-05-06T14:16:51.690Z,100487.16
2023-05-06T14:21:55.830Z,100491.22
2023-05-06T14:26:58.661Z,100485.50
2023-05-06T14:32:01.618Z,100488.16
2023-05-06T14:37:05.920Z,100483.59
2023-05-06T14:42:08.706Z,100473.91
2023-05-06T14:47:11.521Z,100477.31
2023-05-06T14:52:17.141Z,100474.16
2023-05-06T14:57:19.931Z,100463.25
2023-05-06T15:02:22.730Z,100473.69
2023-05-06T15:07:26.977Z,100468.00
2023-05-06T15:12:29.847Z,100469.88
2023-05-06T15:17:32.771Z,100471.75
2023-05-06T15:22:39.255Z,100463.47
2023-05-06T15:27:42.542Z,100463.78
2023-05-06T15:32:45.356Z,100470.47
2023-05-06T15:37:49.645Z,100469.03
2023-05-06T15:42:52.622Z,100471.53
2023-05-06T15:47:56.228Z,100463.78
2023-05-06T15:53:01.144Z,100462.69
2023-05-06T15:58:04.012Z,100465.66
2023-05-06T16:03:09.889Z,100460.38
2023-05-06T16:08:15.993Z,100467.34
2023-05-06T16:13:20.070Z,100479.47
2023-05-06T16:18:23.306Z,100481.75
2023-05-06T16:23:27.431Z,100478.59
2023-05-06T16:28:30.263Z,100466.34
2023-05-06T16:33:33.072Z,100469.13
2023-05-06T16:38:37.696Z,100468.38
2023-05-06T16:43:40.985Z,100470.19
2023-05-06T16:48:43.950Z,100462.44
2023-05-06T16:53:48.228Z,100462.50
2023-05-06T16:58:51.078Z,100445.41
2023-05-06T17:03:53.834Z,100454.09
2023-05-06T17:08:58.668Z,100449.25
2023-05-06T17:14:01.428Z,100439.56
2023-05-06T17:19:04.229Z,100449.75
2023-05-06T17:24:08.644Z,100452.94
2023-05-06T17:29:11.473Z,100458.19
2023-05-06T17:34:14.378Z,100456.94
2023-05-06T17:39:18.537Z,100459.81
2023-05-06T17:44:21.530Z,100468.38
2023-05-06T17:49:24.369Z,100473.50
2023-05-06T17:54:32.343Z,100473.16
2023-05-06T17:59:35.215Z,100478.09
2023-05-06T18:04:38.019Z,100479.16
2023-05-06T18:09:42.550Z,100488.25
2023-05-06T18:14:45.474Z,100492.19
2023-05-06T18:19:48.232Z,100492.03
2023-05-06T18:24:55.170Z,100498.00
2023-05-06T18:29:59.197Z,100501.25
2023-05-06T18:35:02.117Z,100498.00
2023-05-06T18:40:09.198Z,100501.91
2023-05-06T18:45:13.160Z,100499.66
2023-05-06T18:50:16.174Z,100511.69
2023-05-06T18:55:20.620Z,100518.16
2023-05-06T19:00:24.298Z,100521.00
2023-05-06T19:05:27.728Z,100516.06
2023-05-06T19:10:32.069Z,100521.78
2023-05-06T19:15:35.658Z,100527.72
2023-05-06T19:20:38.896Z,100531.28
2023-05-06T19:25:43.091Z,100535.06
2023-05-06T19:30:45.934Z,100527.38
2023-05-06T19:35:48.821Z,100533.31
2023-05-06T19:40:53.055Z,100534.50
2023-05-06T19:45:55.995Z,100533.91
2023-05-06T19:50:58.980Z,100538.94
2023-05-06T19:56:10.786Z,100532.44
2023-05-06T20:01:13.744Z,100542.63
2023-05-06T20:06:17.147Z,100543.44
2023-05-06T20:11:21.398Z,100542.44
2023-05-06T20:16:24.527Z,100544.56
2023-05-06T20:21:27.432Z,100540.53
2023-05-06T20:26:31.715Z,100543.00
2023-05-06T20:31:34.702Z,100545.56
2023-05-06T20:36:37.721Z,100563.31
2023-05-06T20:41:41.952Z,100580.25
2023-05-06T20:46:45.198Z,100595.13
2023-05-06T20:51:48.005Z,100592.50
2023-05-06T20:56:52.202Z,100581.75
2023-05-06T21:01:55.039Z,100577.31
2023-05-06T21:06:58.263Z,100572.88
2023-05-06T21:12:02.632Z,100571.41
2023-05-06T21:17:05.673Z,100576.59
2023-05-06T21:22:10.895Z,100574.78
2023-05-06T21:27:16.706Z,100570.84
2023-05-06T21:32:19.905Z,100574.69
2023-05-06T21:37:22.920Z,100575.72
2023-05-06T21:42:27.756Z,100574.78
2023-05-06T21:47:30.922Z,100569.75
2023-05-06T21:52:34.197Z,100564.81
2023-05-06T21:57:38.897Z,100559.13
2023-05-06T22:02:42.173Z,100557.63
2023-05-06T22:07:45.346Z,100546.97
2023-05-06T22:12:49.735Z,100549.25
2023-05-06T22:17:53.038Z,100551.69
2023-05-06T22:22:55.868Z,100556.66
2023-05-06T22:27:59.963Z,100543.72
2023-05-06T22:33:03.135Z,100555.78
2023-05-06T22:38:05.890Z,100552.25
2023-05-06T22:43:10.010Z,100554.38
2023-05-06T22:48:12.856Z,100556.66
2023-05-06T22:53:15.854Z,100556.38
2023-05-06T22:58:20.013Z,100567.91
2023-05-06T23:03:23.363Z,100551.94
2023-05-06T23:08:26.177Z,100550.66
2023-05-06T23:13:31.252Z,100560.75
2023-05-06T23:18:33.995Z,100557.66
2023-05-06T23:23:36.796Z,100555.81
2023-05-06T23:28:40.887Z,100556.53
2023-05-06T23:33:43.590Z,100567.59
2023-05-06T23:38:46.388Z,100565.06
2023-05-06T23:43:50.523Z,100557.97
2023-05-06T23:48:53.304Z,100556.78
2023-05-06T23:53:56.322Z,100557.97
2023-05-06T23:59:00.453Z,100555.69
